sensor_id;sensor_type;location;lat;lon;timestamp;P1;durP1;ratioP1;P2;durP2;ratioP2
40635;SDS011;26642;55.766;37.828;2024-02-15T00:00:15;5.20;;;3.65;;
40635;SDS011;26642;55.766;37.828;2024-02-15T00:02:42;5.65;;;4.30;;
40635;SDS011;26642;55.766;37.828;2024-02-15T00:05:10;6.65;;;4.22;;
40635;SDS011;26642;55.766;37.828;2024-02-15T00:07:36;8.55;;;4.68;;
40635;SDS011;26642;55.766;37.828;2024-02-15T00:10:04;8.10;;;4.68;;
40635;SDS011;26642;55.766;37.828;2024-02-15T00:12:30;7.05;;;4.35;;
40635;SDS011;26642;55.766;37.828;2024-02-15T00:14:57;5.72;;;3.85;;
40635;SDS011;26642;55.766;37.828;2024-02-15T00:17:27;5.72;;;3.95;;
40635;SDS011;26642;55.766;37.828;2024-02-15T00:19:54;6.95;;;4.15;;
40635;SDS011;26642;55.766;37.828;2024-02-15T00:22:20;6.10;;;3.90;;
40635;SDS011;26642;55.766;37.828;2024-02-15T00:24:47;5.68;;;3.90;;
40635;SDS011;26642;55.766;37.828;2024-02-15T00:27:16;5.90;;;3.38;;
40635;SDS011;26642;55.766;37.828;2024-02-15T00:29:42;5.57;;;3.78;;
40635;SDS011;26642;55.766;37.828;2024-02-15T00:32:11;5.32;;;4.03;;
40635;SDS011;26642;55.766;37.828;2024-02-15T00:34:37;6.32;;;4.25;;
40635;SDS011;26642;55.766;37.828;2024-02-15T00:37:06;6.50;;;3.88;;
40635;SDS011;26642;55.766;37.828;2024-02-15T00:39:33;5.93;;;4.18;;
40635;SDS011;26642;55.766;37.828;2024-02-15T00:41:59;6.80;;;3.97;;
40635;SDS011;26642;55.766;37.828;2024-02-15T00:44:27;4.85;;;3.72;;
40635;SDS011;26642;55.766;37.828;2024-02-15T00:46:53;5.43;;;3.67;;
40635;SDS011;26642;55.766;37.828;2024-02-15T00:49:19;9.00;;;4.78;;
40635;SDS011;26642;55.766;37.828;2024-02-15T00:51:48;6.53;;;4.50;;
40635;SDS011;26642;55.766;37.828;2024-02-15T00:54:14;7.03;;;4.32;;
40635;SDS011;26642;55.766;37.828;2024-02-15T00:56:41;6.55;;;4.60;;
40635;SDS011;26642;55.766;37.828;2024-02-15T00:59:07;7.72;;;4.68;;
40635;SDS011;26642;55.766;37.828;2024-02-15T01:01:33;6.53;;;4.43;;
40635;SDS011;26642;55.766;37.828;2024-02-15T01:04:02;7.82;;;4.63;;
40635;SDS011;26642;55.766;37.828;2024-02-15T01:06:28;10.07;;;5.00;;
40635;SDS011;26642;55.766;37.828;2024-02-15T01:08:54;6.47;;;4.53;;
40635;SDS011;26642;55.766;37.828;2024-02-15T01:11:20;6.20;;;4.53;;
40635;SDS011;26642;55.766;37.828;2024-02-15T01:13:46;8.23;;;4.97;;
40635;SDS011;26642;55.766;37.828;2024-02-15T01:16:12;5.78;;;4.50;;
40635;SDS011;26642;55.766;37.828;2024-02-15T01:18:38;6.85;;;4.60;;
40635;SDS011;26642;55.766;37.828;2024-02-15T01:21:04;6.70;;;4.70;;
40635;SDS011;26642;55.766;37.828;2024-02-15T01:23:30;7.20;;;4.70;;
40635;SDS011;26642;55.766;37.828;2024-02-15T01:25:56;7.03;;;4.60;;
40635;SDS011;26642;55.766;37.828;2024-02-15T01:28:23;9.43;;;4.90;;
40635;SDS011;26642;55.766;37.828;2024-02-15T01:30:49;6.47;;;4.53;;
40635;SDS011;26642;55.766;37.828;2024-02-15T01:33:15;8.38;;;4.85;;
40635;SDS011;26642;55.766;37.828;2024-02-15T01:35:42;6.72;;;4.38;;
40635;SDS011;26642;55.766;37.828;2024-02-15T01:38:08;7.75;;;5.05;;
40635;SDS011;26642;55.766;37.828;2024-02-15T01:40:35;7.93;;;4.55;;
40635;SDS011;26642;55.766;37.828;2024-02-15T01:43:01;6.72;;;4.25;;
40635;SDS011;26642;55.766;37.828;2024-02-15T01:45:29;8.93;;;4.97;;
40635;SDS011;26642;55.766;37.828;2024-02-15T01:47:55;6.80;;;4.82;;
40635;SDS011;26642;55.766;37.828;2024-02-15T01:50:21;8.13;;;5.07;;
40635;SDS011;26642;55.766;37.828;2024-02-15T01:52:49;7.03;;;5.22;;
40635;SDS011;26642;55.766;37.828;2024-02-15T01:55:20;6.85;;;5.10;;
40635;SDS011;26642;55.766;37.828;2024-02-15T01:57:47;6.60;;;4.80;;
40635;SDS011;26642;55.766;37.828;2024-02-15T02:00:23;5.88;;;4.30;;
40635;SDS011;26642;55.766;37.828;2024-02-15T02:02:53;8.13;;;5.30;;
40635;SDS011;26642;55.766;37.828;2024-02-15T02:05:25;7.30;;;4.90;;
40635;SDS011;26642;55.766;37.828;2024-02-15T02:07:53;8.77;;;5.43;;
40635;SDS011;26642;55.766;37.828;2024-02-15T02:10:20;8.02;;;4.70;;
40635;SDS011;26642;55.766;37.828;2024-02-15T02:12:46;6.63;;;5.10;;
40635;SDS011;26642;55.766;37.828;2024-02-15T02:15:12;6.97;;;5.15;;
40635;SDS011;26642;55.766;37.828;2024-02-15T02:17:39;6.68;;;5.13;;
40635;SDS011;26642;55.766;37.828;2024-02-15T02:20:06;6.07;;;4.50;;
40635;SDS011;26642;55.766;37.828;2024-02-15T02:22:34;8.63;;;4.75;;
40635;SDS011;26642;55.766;37.828;2024-02-15T02:27:34;7.10;;;4.95;;
40635;SDS011;26642;55.766;37.828;2024-02-15T02:30:14;6.93;;;4.60;;
40635;SDS011;26642;55.766;37.828;2024-02-15T02:32:42;7.47;;;4.63;;
40635;SDS011;26642;55.766;37.828;2024-02-15T02:35:08;7.68;;;4.88;;
40635;SDS011;26642;55.766;37.828;2024-02-15T02:37:38;6.60;;;3.97;;
40635;SDS011;26642;55.766;37.828;2024-02-15T02:40:08;7.35;;;4.18;;
40635;SDS011;26642;55.766;37.828;2024-02-15T02:42:53;7.80;;;4.60;;
40635;SDS011;26642;55.766;37.828;2024-02-15T02:45:26;5.70;;;4.18;;
40635;SDS011;26642;55.766;37.828;2024-02-15T02:47:52;7.40;;;4.10;;
40635;SDS011;26642;55.766;37.828;2024-02-15T02:50:19;7.60;;;4.30;;
40635;SDS011;26642;55.766;37.828;2024-02-15T02:52:48;5.80;;;4.10;;
40635;SDS011;26642;55.766;37.828;2024-02-15T02:55:15;6.18;;;4.43;;
40635;SDS011;26642;55.766;37.828;2024-02-15T02:57:41;7.50;;;4.50;;
40635;SDS011;26642;55.766;37.828;2024-02-15T03:00:08;6.00;;;4.35;;
40635;SDS011;26642;55.766;37.828;2024-02-15T03:02:50;8.68;;;4.53;;
40635;SDS011;26642;55.766;37.828;2024-02-15T03:05:16;6.03;;;4.07;;
40635;SDS011;26642;55.766;37.828;2024-02-15T03:07:45;6.80;;;4.15;;
40635;SDS011;26642;55.766;37.828;2024-02-15T03:10:11;6.10;;;4.25;;
40635;SDS011;26642;55.766;37.828;2024-02-15T03:12:39;5.93;;;4.15;;
40635;SDS011;26642;55.766;37.828;2024-02-15T03:15:05;5.93;;;4.00;;
40635;SDS011;26642;55.766;37.828;2024-02-15T03:17:38;7.93;;;4.50;;
40635;SDS011;26642;55.766;37.828;2024-02-15T03:20:06;7.43;;;4.43;;
40635;SDS011;26642;55.766;37.828;2024-02-15T03:22:59;6.35;;;4.90;;
40635;SDS011;26642;55.766;37.828;2024-02-15T03:25:26;6.10;;;4.28;;
40635;SDS011;26642;55.766;37.828;2024-02-15T03:27:57;7.22;;;4.93;;
40635;SDS011;26642;55.766;37.828;2024-02-15T03:30:25;6.20;;;4.70;;
40635;SDS011;26642;55.766;37.828;2024-02-15T03:32:52;5.40;;;4.03;;
40635;SDS011;26642;55.766;37.828;2024-02-15T03:35:19;7.05;;;4.50;;
40635;SDS011;26642;55.766;37.828;2024-02-15T03:37:48;7.43;;;4.55;;
40635;SDS011;26642;55.766;37.828;2024-02-15T03:40:17;5.95;;;4.32;;
40635;SDS011;26642;55.766;37.828;2024-02-15T03:42:47;6.63;;;4.18;;
40635;SDS011;26642;55.766;37.828;2024-02-15T03:45:15;7.93;;;4.70;;
40635;SDS011;26642;55.766;37.828;2024-02-15T03:47:41;6.72;;;4.60;;
40635;SDS011;26642;55.766;37.828;2024-02-15T03:50:07;4.95;;;3.97;;
40635;SDS011;26642;55.766;37.828;2024-02-15T03:52:37;5.85;;;3.97;;
40635;SDS011;26642;55.766;37.828;2024-02-15T03:55:04;5.65;;;4.07;;
40635;SDS011;26642;55.766;37.828;2024-02-15T03:57:32;5.10;;;3.80;;
40635;SDS011;26642;55.766;37.828;2024-02-15T03:59:59;6.20;;;4.43;;
40635;SDS011;26642;55.766;37.828;2024-02-15T04:02:26;6.07;;;4.35;;
40635;SDS011;26642;55.766;37.828;2024-02-15T04:04:53;5.82;;;4.05;;
40635;SDS011;26642;55.766;37.828;2024-02-15T04:07:20;5.50;;;3.92;;
40635;SDS011;26642;55.766;37.828;2024-02-15T04:09:48;7.25;;;4.20;;
40635;SDS011;26642;55.766;37.828;2024-02-15T04:12:14;5.78;;;4.15;;
40635;SDS011;26642;55.766;37.828;2024-02-15T04:14:40;6.38;;;4.30;;
40635;SDS011;26642;55.766;37.828;2024-02-15T04:17:06;7.13;;;4.88;;
40635;SDS011;26642;55.766;37.828;2024-02-15T04:19:33;5.90;;;4.30;;
40635;SDS011;26642;55.766;37.828;2024-02-15T04:21:59;8.02;;;4.68;;
40635;SDS011;26642;55.766;37.828;2024-02-15T04:24:33;6.60;;;4.45;;
40635;SDS011;26642;55.766;37.828;2024-02-15T04:27:00;8.25;;;4.80;;
40635;SDS011;26642;55.766;37.828;2024-02-15T04:29:25;6.45;;;4.85;;
40635;SDS011;26642;55.766;37.828;2024-02-15T04:31:51;7.75;;;5.35;;
40635;SDS011;26642;55.766;37.828;2024-02-15T04:34:19;6.85;;;4.70;;
40635;SDS011;26642;55.766;37.828;2024-02-15T04:36:46;7.28;;;4.78;;
40635;SDS011;26642;55.766;37.828;2024-02-15T04:39:16;9.52;;;5.07;;
40635;SDS011;26642;55.766;37.828;2024-02-15T04:41:52;7.90;;;4.65;;
40635;SDS011;26642;55.766;37.828;2024-02-15T04:44:20;6.38;;;4.65;;
40635;SDS011;26642;55.766;37.828;2024-02-15T04:46:48;6.50;;;4.70;;
40635;SDS011;26642;55.766;37.828;2024-02-15T04:49:17;7.03;;;4.80;;
40635;SDS011;26642;55.766;37.828;2024-02-15T04:51:44;6.53;;;4.45;;
40635;SDS011;26642;55.766;37.828;2024-02-15T04:54:10;6.10;;;4.32;;
40635;SDS011;26642;55.766;37.828;2024-02-15T04:56:39;10.73;;;4.20;;
40635;SDS011;26642;55.766;37.828;2024-02-15T04:59:09;6.78;;;4.10;;
40635;SDS011;26642;55.766;37.828;2024-02-15T05:01:40;16.90;;;4.82;;
40635;SDS011;26642;55.766;37.828;2024-02-15T05:04:10;5.57;;;4.20;;
40635;SDS011;26642;55.766;37.828;2024-02-15T05:06:38;6.80;;;4.30;;
40635;SDS011;26642;55.766;37.828;2024-02-15T05:09:05;7.72;;;4.88;;
40635;SDS011;26642;55.766;37.828;2024-02-15T05:11:39;6.82;;;4.57;;
40635;SDS011;26642;55.766;37.828;2024-02-15T05:14:07;9.98;;;4.80;;
40635;SDS011;26642;55.766;37.828;2024-02-15T05:16:33;6.88;;;4.55;;
40635;SDS011;26642;55.766;37.828;2024-02-15T05:19:00;6.63;;;4.50;;
40635;SDS011;26642;55.766;37.828;2024-02-15T05:21:28;7.20;;;4.78;;
40635;SDS011;26642;55.766;37.828;2024-02-15T05:23:55;7.38;;;5.13;;
40635;SDS011;26642;55.766;37.828;2024-02-15T05:26:22;10.27;;;4.43;;
40635;SDS011;26642;55.766;37.828;2024-02-15T05:28:49;6.60;;;4.15;;
40635;SDS011;26642;55.766;37.828;2024-02-15T05:31:17;7.32;;;4.47;;
40635;SDS011;26642;55.766;37.828;2024-02-15T05:33:45;8.10;;;4.82;;
40635;SDS011;26642;55.766;37.828;2024-02-15T05:36:13;5.40;;;4.20;;
40635;SDS011;26642;55.766;37.828;2024-02-15T05:38:40;9.40;;;4.75;;
40635;SDS011;26642;55.766;37.828;2024-02-15T05:41:07;5.97;;;4.25;;
40635;SDS011;26642;55.766;37.828;2024-02-15T05:43:33;7.32;;;4.50;;
40635;SDS011;26642;55.766;37.828;2024-02-15T05:46:18;6.72;;;4.15;;
40635;SDS011;26642;55.766;37.828;2024-02-15T05:48:46;6.40;;;4.43;;
40635;SDS011;26642;55.766;37.828;2024-02-15T05:51:12;8.30;;;4.28;;
40635;SDS011;26642;55.766;37.828;2024-02-15T05:53:39;7.75;;;4.25;;
40635;SDS011;26642;55.766;37.828;2024-02-15T05:56:06;5.57;;;3.63;;
40635;SDS011;26642;55.766;37.828;2024-02-15T05:58:34;6.18;;;4.47;;
40635;SDS011;26642;55.766;37.828;2024-02-15T06:01:01;6.93;;;4.30;;
40635;SDS011;26642;55.766;37.828;2024-02-15T06:03:30;7.07;;;4.28;;
40635;SDS011;26642;55.766;37.828;2024-02-15T06:05:58;6.18;;;4.25;;
40635;SDS011;26642;55.766;37.828;2024-02-15T06:08:27;7.00;;;4.40;;
40635;SDS011;26642;55.766;37.828;2024-02-15T06:10:55;5.95;;;4.00;;
40635;SDS011;26642;55.766;37.828;2024-02-15T06:13:25;8.45;;;4.60;;
40635;SDS011;26642;55.766;37.828;2024-02-15T06:15:51;5.13;;;4.20;;
40635;SDS011;26642;55.766;37.828;2024-02-15T06:18:23;6.82;;;4.57;;
40635;SDS011;26642;55.766;37.828;2024-02-15T06:20:51;6.90;;;4.25;;
40635;SDS011;26642;55.766;37.828;2024-02-15T06:23:17;6.82;;;4.80;;
40635;SDS011;26642;55.766;37.828;2024-02-15T06:25:44;8.65;;;4.75;;
40635;SDS011;26642;55.766;37.828;2024-02-15T06:28:16;6.65;;;4.45;;
40635;SDS011;26642;55.766;37.828;2024-02-15T06:31:05;7.40;;;4.45;;
40635;SDS011;26642;55.766;37.828;2024-02-15T06:33:54;8.43;;;4.95;;
40635;SDS011;26642;55.766;37.828;2024-02-15T06:36:49;6.68;;;4.13;;
40635;SDS011;26642;55.766;37.828;2024-02-15T06:39:34;8.55;;;4.55;;
40635;SDS011;26642;55.766;37.828;2024-02-15T06:42:04;7.93;;;5.22;;
40635;SDS011;26642;55.766;37.828;2024-02-15T06:44:32;7.35;;;4.82;;
40635;SDS011;26642;55.766;37.828;2024-02-15T06:46:58;6.78;;;4.35;;
40635;SDS011;26642;55.766;37.828;2024-02-15T06:49:24;6.28;;;4.07;;
40635;SDS011;26642;55.766;37.828;2024-02-15T06:51:51;5.65;;;3.30;;
40635;SDS011;26642;55.766;37.828;2024-02-15T06:54:17;6.38;;;3.85;;
40635;SDS011;26642;55.766;37.828;2024-02-15T06:56:44;7.53;;;4.43;;
40635;SDS011;26642;55.766;37.828;2024-02-15T06:59:13;6.60;;;3.92;;
40635;SDS011;26642;55.766;37.828;2024-02-15T07:01:40;5.78;;;4.20;;
40635;SDS011;26642;55.766;37.828;2024-02-15T07:04:07;6.47;;;4.10;;
40635;SDS011;26642;55.766;37.828;2024-02-15T07:06:37;5.70;;;4.00;;
40635;SDS011;26642;55.766;37.828;2024-02-15T07:09:04;6.97;;;4.70;;
40635;SDS011;26642;55.766;37.828;2024-02-15T07:11:35;6.30;;;4.40;;
40635;SDS011;26642;55.766;37.828;2024-02-15T07:14:01;6.43;;;4.35;;
40635;SDS011;26642;55.766;37.828;2024-02-15T07:16:30;5.78;;;4.03;;
40635;SDS011;26642;55.766;37.828;2024-02-15T07:18:56;8.02;;;4.15;;
40635;SDS011;26642;55.766;37.828;2024-02-15T07:21:22;5.80;;;4.32;;
40635;SDS011;26642;55.766;37.828;2024-02-15T07:23:52;6.47;;;4.22;;
40635;SDS011;26642;55.766;37.828;2024-02-15T07:26:20;8.88;;;4.57;;
40635;SDS011;26642;55.766;37.828;2024-02-15T07:28:50;7.65;;;4.28;;
40635;SDS011;26642;55.766;37.828;2024-02-15T07:31:20;5.65;;;4.30;;
40635;SDS011;26642;55.766;37.828;2024-02-15T07:33:52;6.35;;;4.07;;
40635;SDS011;26642;55.766;37.828;2024-02-15T07:36:19;5.18;;;3.70;;
40635;SDS011;26642;55.766;37.828;2024-02-15T07:38:50;7.88;;;4.20;;
40635;SDS011;26642;55.766;37.828;2024-02-15T07:41:23;6.35;;;3.85;;
40635;SDS011;26642;55.766;37.828;2024-02-15T07:43:49;4.60;;;3.50;;
40635;SDS011;26642;55.766;37.828;2024-02-15T07:46:16;8.13;;;4.57;;
40635;SDS011;26642;55.766;37.828;2024-02-15T07:48:42;7.97;;;4.10;;
40635;SDS011;26642;55.766;37.828;2024-02-15T07:51:12;5.90;;;4.13;;
40635;SDS011;26642;55.766;37.828;2024-02-15T07:53:46;5.25;;;4.15;;
40635;SDS011;26642;55.766;37.828;2024-02-15T07:56:13;6.43;;;4.18;;
40635;SDS011;26642;55.766;37.828;2024-02-15T07:58:41;7.57;;;4.47;;
40635;SDS011;26642;55.766;37.828;2024-02-15T08:01:10;5.93;;;4.00;;
40635;SDS011;26642;55.766;37.828;2024-02-15T08:03:36;5.95;;;4.22;;
40635;SDS011;26642;55.766;37.828;2024-02-15T08:06:02;5.93;;;4.38;;
40635;SDS011;26642;55.766;37.828;2024-02-15T08:08:35;7.70;;;4.55;;
40635;SDS011;26642;55.766;37.828;2024-02-15T08:11:02;7.10;;;4.22;;
40635;SDS011;26642;55.766;37.828;2024-02-15T08:13:29;8.48;;;4.70;;
40635;SDS011;26642;55.766;37.828;2024-02-15T08:15:55;7.88;;;4.57;;
40635;SDS011;26642;55.766;37.828;2024-02-15T08:18:41;7.47;;;4.43;;
40635;SDS011;26642;55.766;37.828;2024-02-15T08:21:11;6.68;;;4.32;;
40635;SDS011;26642;55.766;37.828;2024-02-15T08:23:37;9.07;;;4.30;;
40635;SDS011;26642;55.766;37.828;2024-02-15T08:26:04;7.05;;;4.20;;
40635;SDS011;26642;55.766;37.828;2024-02-15T08:28:31;7.18;;;3.88;;
40635;SDS011;26642;55.766;37.828;2024-02-15T08:30:57;10.32;;;5.07;;
40635;SDS011;26642;55.766;37.828;2024-02-15T08:33:26;7.07;;;4.55;;
40635;SDS011;26642;55.766;37.828;2024-02-15T08:35:53;6.88;;;4.40;;
40635;SDS011;26642;55.766;37.828;2024-02-15T08:38:23;6.43;;;4.32;;
40635;SDS011;26642;55.766;37.828;2024-02-15T08:40:49;7.97;;;4.88;;
40635;SDS011;26642;55.766;37.828;2024-02-15T08:43:15;7.47;;;4.90;;
40635;SDS011;26642;55.766;37.828;2024-02-15T08:45:42;9.57;;;5.40;;
40635;SDS011;26642;55.766;37.828;2024-02-15T08:48:08;6.00;;;4.03;;
40635;SDS011;26642;55.766;37.828;2024-02-15T08:50:35;5.75;;;4.28;;
40635;SDS011;26642;55.766;37.828;2024-02-15T08:53:01;6.55;;;4.50;;
40635;SDS011;26642;55.766;37.828;2024-02-15T08:55:31;7.88;;;5.10;;
40635;SDS011;26642;55.766;37.828;2024-02-15T08:58:00;7.00;;;4.60;;
40635;SDS011;26642;55.766;37.828;2024-02-15T09:00:27;6.90;;;4.63;;
40635;SDS011;26642;55.766;37.828;2024-02-15T09:02:54;7.80;;;5.13;;
40635;SDS011;26642;55.766;37.828;2024-02-15T09:05:22;7.07;;;5.18;;
40635;SDS011;26642;55.766;37.828;2024-02-15T09:07:48;7.45;;;5.28;;
40635;SDS011;26642;55.766;37.828;2024-02-15T09:10:16;7.38;;;4.90;;
40635;SDS011;26642;55.766;37.828;2024-02-15T09:12:43;7.10;;;4.60;;
40635;SDS011;26642;55.766;37.828;2024-02-15T09:15:12;6.10;;;4.75;;
40635;SDS011;26642;55.766;37.828;2024-02-15T09:17:39;10.18;;;5.15;;
40635;SDS011;26642;55.766;37.828;2024-02-15T09:20:06;9.32;;;4.95;;
40635;SDS011;26642;55.766;37.828;2024-02-15T09:22:49;9.27;;;5.25;;
40635;SDS011;26642;55.766;37.828;2024-02-15T09:25:17;7.38;;;4.90;;
40635;SDS011;26642;55.766;37.828;2024-02-15T09:27:44;7.80;;;5.05;;
40635;SDS011;26642;55.766;37.828;2024-02-15T09:30:13;7.80;;;5.20;;
40635;SDS011;26642;55.766;37.828;2024-02-15T09:35:25;8.05;;;4.95;;
40635;SDS011;26642;55.766;37.828;2024-02-15T09:37:51;8.55;;;4.97;;
40635;SDS011;26642;55.766;37.828;2024-02-15T09:40:20;8.85;;;5.47;;
40635;SDS011;26642;55.766;37.828;2024-02-15T09:42:47;6.90;;;5.00;;
40635;SDS011;26642;55.766;37.828;2024-02-15T09:45:13;8.10;;;5.32;;
40635;SDS011;26642;55.766;37.828;2024-02-15T09:47:43;8.35;;;5.45;;
40635;SDS011;26642;55.766;37.828;2024-02-15T09:50:11;7.70;;;5.70;;
40635;SDS011;26642;55.766;37.828;2024-02-15T09:52:39;10.90;;;5.78;;
40635;SDS011;26642;55.766;37.828;2024-02-15T09:55:09;8.88;;;5.75;;
40635;SDS011;26642;55.766;37.828;2024-02-15T09:57:41;7.68;;;5.50;;
40635;SDS011;26642;55.766;37.828;2024-02-15T10:00:09;7.75;;;5.50;;
40635;SDS011;26642;55.766;37.828;2024-02-15T10:02:40;7.80;;;5.20;;
40635;SDS011;26642;55.766;37.828;2024-02-15T10:05:09;8.07;;;5.13;;
40635;SDS011;26642;55.766;37.828;2024-02-15T10:12:45;9.45;;;5.72;;
40635;SDS011;26642;55.766;37.828;2024-02-15T10:15:31;9.60;;;5.82;;
40635;SDS011;26642;55.766;37.828;2024-02-15T10:18:03;10.43;;;6.18;;
40635;SDS011;26642;55.766;37.828;2024-02-15T10:20:36;8.15;;;5.13;;
40635;SDS011;26642;55.766;37.828;2024-02-15T10:25:36;8.32;;;5.45;;
40635;SDS011;26642;55.766;37.828;2024-02-15T10:28:06;8.55;;;5.93;;
40635;SDS011;26642;55.766;37.828;2024-02-15T10:30:37;8.70;;;5.70;;
40635;SDS011;26642;55.766;37.828;2024-02-15T10:33:04;10.68;;;5.65;;
40635;SDS011;26642;55.766;37.828;2024-02-15T10:35:32;8.40;;;5.53;;
40635;SDS011;26642;55.766;37.828;2024-02-15T10:38:10;9.20;;;5.60;;
40635;SDS011;26642;55.766;37.828;2024-02-15T10:40:39;9.20;;;5.88;;
40635;SDS011;26642;55.766;37.828;2024-02-15T10:43:09;8.40;;;5.85;;
40635;SDS011;26642;55.766;37.828;2024-02-15T10:45:39;8.77;;;5.40;;
40635;SDS011;26642;55.766;37.828;2024-02-15T10:48:07;9.23;;;5.68;;
40635;SDS011;26642;55.766;37.828;2024-02-15T10:50:34;9.82;;;5.50;;
40635;SDS011;26642;55.766;37.828;2024-02-15T10:53:29;10.60;;;6.60;;
40635;SDS011;26642;55.766;37.828;2024-02-15T10:59:08;11.20;;;6.15;;
40635;SDS011;26642;55.766;37.828;2024-02-15T11:01:41;9.48;;;5.68;;
40635;SDS011;26642;55.766;37.828;2024-02-15T11:04:11;8.80;;;5.55;;
40635;SDS011;26642;55.766;37.828;2024-02-15T11:06:42;8.05;;;5.68;;
40635;SDS011;26642;55.766;37.828;2024-02-15T11:09:10;9.90;;;6.00;;
40635;SDS011;26642;55.766;37.828;2024-02-15T11:11:40;8.32;;;5.57;;
40635;SDS011;26642;55.766;37.828;2024-02-15T11:14:23;8.70;;;5.53;;
40635;SDS011;26642;55.766;37.828;2024-02-15T11:17:00;9.25;;;5.65;;
40635;SDS011;26642;55.766;37.828;2024-02-15T11:22:00;10.10;;;5.88;;
40635;SDS011;26642;55.766;37.828;2024-02-15T11:24:32;8.25;;;5.60;;
40635;SDS011;26642;55.766;37.828;2024-02-15T11:27:01;11.75;;;6.03;;
40635;SDS011;26642;55.766;37.828;2024-02-15T11:29:48;8.30;;;5.40;;
40635;SDS011;26642;55.766;37.828;2024-02-15T11:35:14;7.57;;;5.47;;
40635;SDS011;26642;55.766;37.828;2024-02-15T11:43:07;6.78;;;5.40;;
40635;SDS011;26642;55.766;37.828;2024-02-15T11:45:36;9.40;;;5.88;;
40635;SDS011;26642;55.766;37.828;2024-02-15T11:48:10;9.57;;;6.15;;
40635;SDS011;26642;55.766;37.828;2024-02-15T11:50:37;9.27;;;5.90;;
40635;SDS011;26642;55.766;37.828;2024-02-15T11:53:05;9.00;;;5.68;;
40635;SDS011;26642;55.766;37.828;2024-02-15T11:55:36;8.15;;;4.85;;
40635;SDS011;26642;55.766;37.828;2024-02-15T11:58:04;7.60;;;5.13;;
40635;SDS011;26642;55.766;37.828;2024-02-15T12:00:33;9.10;;;6.15;;
40635;SDS011;26642;55.766;37.828;2024-02-15T12:03:18;6.60;;;4.80;;
40635;SDS011;26642;55.766;37.828;2024-02-15T12:06:04;9.68;;;5.68;;
40635;SDS011;26642;55.766;37.828;2024-02-15T12:08:49;8.35;;;5.32;;
40635;SDS011;26642;55.766;37.828;2024-02-15T12:11:37;9.95;;;6.25;;
40635;SDS011;26642;55.766;37.828;2024-02-15T12:14:22;11.50;;;6.45;;
40635;SDS011;26642;55.766;37.828;2024-02-15T12:17:08;9.25;;;5.65;;
40635;SDS011;26642;55.766;37.828;2024-02-15T12:19:54;8.70;;;5.32;;
40635;SDS011;26642;55.766;37.828;2024-02-15T12:24:58;8.88;;;5.60;;
40635;SDS011;26642;55.766;37.828;2024-02-15T12:27:26;8.90;;;5.00;;
40635;SDS011;26642;55.766;37.828;2024-02-15T12:29:56;8.40;;;5.45;;
40635;SDS011;26642;55.766;37.828;2024-02-15T12:32:26;8.85;;;5.32;;
40635;SDS011;26642;55.766;37.828;2024-02-15T12:35:09;8.63;;;5.50;;
40635;SDS011;26642;55.766;37.828;2024-02-15T12:38:01;11.35;;;6.10;;
40635;SDS011;26642;55.766;37.828;2024-02-15T12:40:34;7.70;;;5.18;;
40635;SDS011;26642;55.766;37.828;2024-02-15T12:43:01;9.10;;;5.88;;
40635;SDS011;26642;55.766;37.828;2024-02-15T12:45:31;9.20;;;5.72;;
40635;SDS011;26642;55.766;37.828;2024-02-15T12:48:05;10.48;;;5.13;;
40635;SDS011;26642;55.766;37.828;2024-02-15T12:50:32;8.27;;;5.43;;
40635;SDS011;26642;55.766;37.828;2024-02-15T12:52:59;10.02;;;5.45;;
40635;SDS011;26642;55.766;37.828;2024-02-15T12:55:29;9.68;;;6.00;;
40635;SDS011;26642;55.766;37.828;2024-02-15T12:58:00;10.50;;;6.68;;
40635;SDS011;26642;55.766;37.828;2024-02-15T13:00:29;8.60;;;4.72;;
40635;SDS011;26642;55.766;37.828;2024-02-15T13:03:02;8.98;;;4.40;;
40635;SDS011;26642;55.766;37.828;2024-02-15T13:05:29;7.63;;;4.30;;
40635;SDS011;26642;55.766;37.828;2024-02-15T13:07:56;7.63;;;5.22;;
40635;SDS011;26642;55.766;37.828;2024-02-15T13:10:35;6.60;;;4.80;;
40635;SDS011;26642;55.766;37.828;2024-02-15T13:13:04;10.70;;;5.45;;
40635;SDS011;26642;55.766;37.828;2024-02-15T13:15:31;13.27;;;5.10;;
40635;SDS011;26642;55.766;37.828;2024-02-15T13:18:01;7.45;;;4.47;;
40635;SDS011;26642;55.766;37.828;2024-02-15T13:20:31;7.03;;;4.70;;
40635;SDS011;26642;55.766;37.828;2024-02-15T13:23:01;8.55;;;4.50;;
40635;SDS011;26642;55.766;37.828;2024-02-15T13:25:34;8.32;;;5.13;;
40635;SDS011;26642;55.766;37.828;2024-02-15T13:28:04;9.25;;;5.07;;
40635;SDS011;26642;55.766;37.828;2024-02-15T13:30:31;7.68;;;5.22;;
40635;SDS011;26642;55.766;37.828;2024-02-15T13:32:58;10.20;;;5.70;;
40635;SDS011;26642;55.766;37.828;2024-02-15T13:35:24;11.45;;;5.60;;
40635;SDS011;26642;55.766;37.828;2024-02-15T13:37:51;7.97;;;5.15;;
40635;SDS011;26642;55.766;37.828;2024-02-15T13:40:26;9.38;;;5.57;;
40635;SDS011;26642;55.766;37.828;2024-02-15T13:42:54;10.88;;;5.53;;
40635;SDS011;26642;55.766;37.828;2024-02-15T13:45:30;7.90;;;5.95;;
40635;SDS011;26642;55.766;37.828;2024-02-15T13:48:02;9.65;;;5.90;;
40635;SDS011;26642;55.766;37.828;2024-02-15T13:50:32;8.10;;;5.13;;
40635;SDS011;26642;55.766;37.828;2024-02-15T13:52:59;8.40;;;5.97;;
40635;SDS011;26642;55.766;37.828;2024-02-15T13:55:26;9.10;;;5.13;;
40635;SDS011;26642;55.766;37.828;2024-02-15T13:57:52;9.07;;;5.38;;
40635;SDS011;26642;55.766;37.828;2024-02-15T14:00:21;8.35;;;5.40;;
40635;SDS011;26642;55.766;37.828;2024-02-15T14:02:47;8.80;;;5.68;;
40635;SDS011;26642;55.766;37.828;2024-02-15T14:05:18;9.15;;;5.95;;
40635;SDS011;26642;55.766;37.828;2024-02-15T14:07:46;9.75;;;5.50;;
40635;SDS011;26642;55.766;37.828;2024-02-15T14:10:13;7.47;;;5.40;;
40635;SDS011;26642;55.766;37.828;2024-02-15T14:12:39;7.07;;;4.82;;
40635;SDS011;26642;55.766;37.828;2024-02-15T14:15:05;10.88;;;6.22;;
40635;SDS011;26642;55.766;37.828;2024-02-15T14:17:32;9.02;;;5.80;;
40635;SDS011;26642;55.766;37.828;2024-02-15T14:19:58;7.55;;;5.30;;
40635;SDS011;26642;55.766;37.828;2024-02-15T14:22:26;7.35;;;5.07;;
40635;SDS011;26642;55.766;37.828;2024-02-15T14:24:54;7.10;;;5.00;;
40635;SDS011;26642;55.766;37.828;2024-02-15T14:27:21;8.63;;;5.30;;
40635;SDS011;26642;55.766;37.828;2024-02-15T14:29:47;7.75;;;5.30;;
40635;SDS011;26642;55.766;37.828;2024-02-15T14:32:31;8.30;;;5.68;;
40635;SDS011;26642;55.766;37.828;2024-02-15T14:35:16;8.05;;;5.07;;
40635;SDS011;26642;55.766;37.828;2024-02-15T14:37:43;9.40;;;5.75;;
40635;SDS011;26642;55.766;37.828;2024-02-15T14:40:10;6.95;;;5.15;;
40635;SDS011;26642;55.766;37.828;2024-02-15T14:42:39;9.20;;;5.38;;
40635;SDS011;26642;55.766;37.828;2024-02-15T14:45:10;8.70;;;5.63;;
40635;SDS011;26642;55.766;37.828;2024-02-15T14:47:37;11.43;;;6.07;;
40635;SDS011;26642;55.766;37.828;2024-02-15T14:50:04;10.18;;;6.07;;
40635;SDS011;26642;55.766;37.828;2024-02-15T14:52:36;9.00;;;5.70;;
40635;SDS011;26642;55.766;37.828;2024-02-15T14:55:05;9.75;;;5.03;;
40635;SDS011;26642;55.766;37.828;2024-02-15T14:57:33;9.32;;;5.95;;
40635;SDS011;26642;55.766;37.828;2024-02-15T15:00:00;10.75;;;6.15;;
40635;SDS011;26642;55.766;37.828;2024-02-15T15:02:26;8.63;;;5.75;;
40635;SDS011;26642;55.766;37.828;2024-02-15T15:04:52;8.88;;;5.43;;
40635;SDS011;26642;55.766;37.828;2024-02-15T15:07:37;10.00;;;6.00;;
40635;SDS011;26642;55.766;37.828;2024-02-15T15:10:22;8.87;;;6.13;;
40635;SDS011;26642;55.766;37.828;2024-02-15T15:13:07;8.70;;;5.95;;
40635;SDS011;26642;55.766;37.828;2024-02-15T15:15:35;10.07;;;6.20;;